sensor_id;sensor_type;location;lat;lon;timestamp;P1;durP1;ratioP1;P2;durP2;ratioP2
6983;SDS011;3532;51.118;7.210;2022-10-26T00:02:14;4.70;;;2.87;;
6983;SDS011;3532;51.118;7.210;2022-10-26T00:04:39;6.37;;;2.63;;
6983;SDS011;3532;51.118;7.210;2022-10-26T00:07:04;3.93;;;3.07;;
6983;SDS011;3532;51.118;7.210;2022-10-26T00:09:30;4.73;;;3.13;;
6983;SDS011;3532;51.118;7.210;2022-10-26T00:11:55;8.23;;;3.53;;
6983;SDS011;3532;51.118;7.210;2022-10-26T00:14:20;4.03;;;2.50;;
6983;SDS011;3532;51.118;7.210;2022-10-26T00:16:47;9.23;;;3.10;;
6983;SDS011;3532;51.118;7.210;2022-10-26T00:19:12;4.63;;;3.00;;
6983;SDS011;3532;51.118;7.210;2022-10-26T00:21:37;4.43;;;2.83;;
6983;SDS011;3532;51.118;7.210;2022-10-26T00:24:03;2.97;;;2.53;;
6983;SDS011;3532;51.118;7.210;2022-10-26T00:26:28;7.30;;;2.60;;
6983;SDS011;3532;51.118;7.210;2022-10-26T00:28:54;8.50;;;3.20;;
6983;SDS011;3532;51.118;7.210;2022-10-26T00:31:21;2.70;;;2.40;;
6983;SDS011;3532;51.118;7.210;2022-10-26T00:33:46;6.10;;;2.80;;
6983;SDS011;3532;51.118;7.210;2022-10-26T00:36:12;3.13;;;2.50;;
6983;SDS011;3532;51.118;7.210;2022-10-26T00:38:41;4.07;;;2.83;;
6983;SDS011;3532;51.118;7.210;2022-10-26T00:41:12;3.13;;;2.27;;
6983;SDS011;3532;51.118;7.210;2022-10-26T00:43:39;3.83;;;2.20;;
6983;SDS011;3532;51.118;7.210;2022-10-26T00:46:05;4.40;;;2.30;;
6983;SDS011;3532;51.118;7.210;2022-10-26T00:48:33;5.83;;;3.10;;
6983;SDS011;3532;51.118;7.210;2022-10-26T00:51:01;6.43;;;2.83;;
6983;SDS011;3532;51.118;7.210;2022-10-26T00:53:28;5.07;;;2.70;;
6983;SDS011;3532;51.118;7.210;2022-10-26T00:55:54;5.07;;;2.73;;
6983;SDS011;3532;51.118;7.210;2022-10-26T00:58:20;3.90;;;2.67;;
6983;SDS011;3532;51.118;7.210;2022-10-26T01:00:45;5.20;;;2.93;;
6983;SDS011;3532;51.118;7.210;2022-10-26T01:03:12;2.53;;;2.30;;
6983;SDS011;3532;51.118;7.210;2022-10-26T01:05:38;4.43;;;2.47;;
6983;SDS011;3532;51.118;7.210;2022-10-26T01:08:05;3.83;;;2.60;;
6983;SDS011;3532;51.118;7.210;2022-10-26T01:10:31;3.90;;;2.70;;
6983;SDS011;3532;51.118;7.210;2022-10-26T01:12:57;3.97;;;2.47;;
6983;SDS011;3532;51.118;7.210;2022-10-26T01:15:23;2.80;;;2.37;;
6983;SDS011;3532;51.118;7.210;2022-10-26T01:23:40;6.77;;;2.77;;
6983;SDS011;3532;51.118;7.210;2022-10-26T01:34:43;2.67;;;2.17;;
6983;SDS011;3532;51.118;7.210;2022-10-26T01:37:12;12.27;;;3.43;;
6983;SDS011;3532;51.118;7.210;2022-10-26T01:39:47;5.40;;;2.80;;
6983;SDS011;3532;51.118;7.210;2022-10-26T01:42:16;6.00;;;2.30;;
6983;SDS011;3532;51.118;7.210;2022-10-26T01:44:44;3.70;;;2.33;;
6983;SDS011;3532;51.118;7.210;2022-10-26T01:47:12;3.03;;;2.43;;
6983;SDS011;3532;51.118;7.210;2022-10-26T01:49:47;5.07;;;2.80;;
6983;SDS011;3532;51.118;7.210;2022-10-26T01:52:19;8.60;;;2.37;;
6983;SDS011;3532;51.118;7.210;2022-10-26T01:54:45;9.00;;;2.60;;
6983;SDS011;3532;51.118;7.210;2022-10-26T01:57:11;3.70;;;2.37;;
6983;SDS011;3532;51.118;7.210;2022-10-26T02:02:37;5.27;;;2.93;;
6983;SDS011;3532;51.118;7.210;2022-10-26T02:05:32;4.40;;;2.33;;
6983;SDS011;3532;51.118;7.210;2022-10-26T02:13:51;5.90;;;2.40;;
6983;SDS011;3532;51.118;7.210;2022-10-26T02:21:37;4.40;;;2.50;;
6983;SDS011;3532;51.118;7.210;2022-10-26T02:24:06;5.30;;;2.60;;
6983;SDS011;3532;51.118;7.210;2022-10-26T02:26:32;5.13;;;2.70;;
6983;SDS011;3532;51.118;7.210;2022-10-26T02:28:59;8.90;;;2.90;;
6983;SDS011;3532;51.118;7.210;2022-10-26T02:31:27;3.23;;;2.13;;
6983;SDS011;3532;51.118;7.210;2022-10-26T02:33:53;6.60;;;2.43;;
6983;SDS011;3532;51.118;7.210;2022-10-26T02:36:21;7.03;;;3.50;;
6983;SDS011;3532;51.118;7.210;2022-10-26T02:38:49;5.40;;;2.70;;
6983;SDS011;3532;51.118;7.210;2022-10-26T02:41:15;5.50;;;3.00;;
6983;SDS011;3532;51.118;7.210;2022-10-26T02:43:43;5.50;;;2.47;;
6983;SDS011;3532;51.118;7.210;2022-10-26T02:46:12;4.83;;;2.63;;
6983;SDS011;3532;51.118;7.210;2022-10-26T02:48:39;7.23;;;2.70;;
6983;SDS011;3532;51.118;7.210;2022-10-26T02:51:08;6.33;;;2.47;;
6983;SDS011;3532;51.118;7.210;2022-10-26T02:53:45;4.70;;;2.60;;
6983;SDS011;3532;51.118;7.210;2022-10-26T02:56:16;5.07;;;2.80;;
6983;SDS011;3532;51.118;7.210;2022-10-26T02:58:46;3.27;;;2.53;;
6983;SDS011;3532;51.118;7.210;2022-10-26T03:01:13;5.93;;;2.57;;
6983;SDS011;3532;51.118;7.210;2022-10-26T03:03:39;4.60;;;2.90;;
6983;SDS011;3532;51.118;7.210;2022-10-26T03:06:04;3.33;;;2.07;;
6983;SDS011;3532;51.118;7.210;2022-10-26T03:08:30;4.77;;;2.70;;
6983;SDS011;3532;51.118;7.210;2022-10-26T03:10:55;11.33;;;3.27;;
6983;SDS011;3532;51.118;7.210;2022-10-26T03:13:21;4.90;;;2.60;;
6983;SDS011;3532;51.118;7.210;2022-10-26T03:15:47;7.03;;;2.50;;
6983;SDS011;3532;51.118;7.210;2022-10-26T03:18:12;9.17;;;2.63;;
6983;SDS011;3532;51.118;7.210;2022-10-26T03:20:37;8.03;;;2.63;;
6983;SDS011;3532;51.118;7.210;2022-10-26T03:23:03;10.83;;;3.27;;
6983;SDS011;3532;51.118;7.210;2022-10-26T03:25:28;5.57;;;2.70;;
6983;SDS011;3532;51.118;7.210;2022-10-26T03:27:57;6.40;;;2.87;;
6983;SDS011;3532;51.118;7.210;2022-10-26T03:30:23;6.80;;;2.43;;
6983;SDS011;3532;51.118;7.210;2022-10-26T03:32:49;7.87;;;2.83;;
6983;SDS011;3532;51.118;7.210;2022-10-26T03:35:14;9.13;;;2.87;;
6983;SDS011;3532;51.118;7.210;2022-10-26T03:37:39;6.13;;;2.50;;
6983;SDS011;3532;51.118;7.210;2022-10-26T03:40:05;7.73;;;2.73;;
6983;SDS011;3532;51.118;7.210;2022-10-26T03:42:37;9.03;;;2.37;;
6983;SDS011;3532;51.118;7.210;2022-10-26T03:45:03;11.03;;;3.40;;
6983;SDS011;3532;51.118;7.210;2022-10-26T03:47:29;7.67;;;2.40;;
6983;SDS011;3532;51.118;7.210;2022-10-26T03:49:55;4.33;;;2.67;;
6983;SDS011;3532;51.118;7.210;2022-10-26T03:52:20;4.57;;;2.83;;
6983;SDS011;3532;51.118;7.210;2022-10-26T03:54:48;4.50;;;2.60;;
6983;SDS011;3532;51.118;7.210;2022-10-26T03:57:13;6.47;;;2.77;;
6983;SDS011;3532;51.118;7.210;2022-10-26T03:59:38;5.10;;;2.80;;
6983;SDS011;3532;51.118;7.210;2022-10-26T04:02:04;5.10;;;2.60;;
6983;SDS011;3532;51.118;7.210;2022-10-26T04:04:29;5.20;;;2.93;;
6983;SDS011;3532;51.118;7.210;2022-10-26T04:06:54;5.43;;;3.13;;
6983;SDS011;3532;51.118;7.210;2022-10-26T04:09:19;8.67;;;2.93;;
6983;SDS011;3532;51.118;7.210;2022-10-26T04:11:45;3.83;;;2.63;;
6983;SDS011;3532;51.118;7.210;2022-10-26T04:14:10;9.03;;;3.17;;
6983;SDS011;3532;51.118;7.210;2022-10-26T04:16:35;7.83;;;2.50;;
6983;SDS011;3532;51.118;7.210;2022-10-26T04:19:01;3.70;;;2.47;;
6983;SDS011;3532;51.118;7.210;2022-10-26T04:21:26;8.20;;;2.57;;
6983;SDS011;3532;51.118;7.210;2022-10-26T04:23:51;6.47;;;2.80;;
6983;SDS011;3532;51.118;7.210;2022-10-26T04:26:17;6.13;;;2.30;;
6983;SDS011;3532;51.118;7.210;2022-10-26T04:28:42;7.20;;;2.90;;
6983;SDS011;3532;51.118;7.210;2022-10-26T04:31:07;5.73;;;2.27;;
6983;SDS011;3532;51.118;7.210;2022-10-26T04:33:32;3.47;;;2.07;;
6983;SDS011;3532;51.118;7.210;2022-10-26T04:36:00;7.83;;;3.00;;
6983;SDS011;3532;51.118;7.210;2022-10-26T04:38:27;3.67;;;2.50;;
6983;SDS011;3532;51.118;7.210;2022-10-26T04:40:52;4.17;;;2.40;;
6983;SDS011;3532;51.118;7.210;2022-10-26T04:43:17;5.80;;;2.40;;
6983;SDS011;3532;51.118;7.210;2022-10-26T04:45:42;6.40;;;2.30;;
6983;SDS011;3532;51.118;7.210;2022-10-26T04:48:11;3.80;;;2.53;;
6983;SDS011;3532;51.118;7.210;2022-10-26T04:50:37;4.27;;;2.23;;
6983;SDS011;3532;51.118;7.210;2022-10-26T04:53:03;4.57;;;2.50;;
6983;SDS011;3532;51.118;7.210;2022-10-26T04:55:30;4.90;;;2.10;;
6983;SDS011;3532;51.118;7.210;2022-10-26T04:57:55;6.57;;;2.20;;
6983;SDS011;3532;51.118;7.210;2022-10-26T05:00:20;4.77;;;1.90;;
6983;SDS011;3532;51.118;7.210;2022-10-26T05:02:46;5.50;;;2.20;;
6983;SDS011;3532;51.118;7.210;2022-10-26T05:05:11;7.23;;;2.67;;
6983;SDS011;3532;51.118;7.210;2022-10-26T05:07:36;4.03;;;2.23;;
6983;SDS011;3532;51.118;7.210;2022-10-26T05:10:02;3.60;;;2.20;;
6983;SDS011;3532;51.118;7.210;2022-10-26T05:12:27;2.97;;;2.27;;
6983;SDS011;3532;51.118;7.210;2022-10-26T05:14:53;6.13;;;2.30;;
6983;SDS011;3532;51.118;7.210;2022-10-26T05:17:22;3.73;;;2.20;;
6983;SDS011;3532;51.118;7.210;2022-10-26T05:19:48;4.40;;;2.33;;
6983;SDS011;3532;51.118;7.210;2022-10-26T05:22:19;4.20;;;2.10;;
6983;SDS011;3532;51.118;7.210;2022-10-26T05:24:44;3.03;;;2.03;;
6983;SDS011;3532;51.118;7.210;2022-10-26T05:27:09;4.80;;;2.10;;
6983;SDS011;3532;51.118;7.210;2022-10-26T05:29:35;6.80;;;2.10;;
6983;SDS011;3532;51.118;7.210;2022-10-26T05:32:00;9.27;;;2.40;;
6983;SDS011;3532;51.118;7.210;2022-10-26T05:34:25;6.10;;;2.23;;
6983;SDS011;3532;51.118;7.210;2022-10-26T05:36:51;6.60;;;2.30;;
6983;SDS011;3532;51.118;7.210;2022-10-26T05:39:17;7.60;;;2.30;;
6983;SDS011;3532;51.118;7.210;2022-10-26T05:41:42;3.00;;;2.53;;
6983;SDS011;3532;51.118;7.210;2022-10-26T05:44:07;4.77;;;2.00;;
6983;SDS011;3532;51.118;7.210;2022-10-26T05:46:33;10.83;;;2.00;;
6983;SDS011;3532;51.118;7.210;2022-10-26T05:48:58;4.90;;;2.10;;
6983;SDS011;3532;51.118;7.210;2022-10-26T05:51:23;5.83;;;2.47;;
6983;SDS011;3532;51.118;7.210;2022-10-26T05:53:50;2.73;;;2.13;;
6983;SDS011;3532;51.118;7.210;2022-10-26T05:56:18;3.37;;;2.07;;
6983;SDS011;3532;51.118;7.210;2022-10-26T05:58:45;3.37;;;2.00;;
6983;SDS011;3532;51.118;7.210;2022-10-26T06:01:14;2.37;;;1.90;;
6983;SDS011;3532;51.118;7.210;2022-10-26T06:03:47;5.07;;;2.70;;
6983;SDS011;3532;51.118;7.210;2022-10-26T06:06:35;2.93;;;2.20;;
6983;SDS011;3532;51.118;7.210;2022-10-26T06:09:03;1.77;;;1.50;;
6983;SDS011;3532;51.118;7.210;2022-10-26T06:11:28;4.20;;;1.90;;
6983;SDS011;3532;51.118;7.210;2022-10-26T06:13:54;6.70;;;2.23;;
6983;SDS011;3532;51.118;7.210;2022-10-26T06:32:18;7.13;;;2.53;;
6983;SDS011;3532;51.118;7.210;2022-10-26T06:34:44;3.30;;;2.20;;
6983;SDS011;3532;51.118;7.210;2022-10-26T06:37:11;4.70;;;2.03;;
6983;SDS011;3532;51.118;7.210;2022-10-26T06:39:38;5.47;;;2.00;;
6983;SDS011;3532;51.118;7.210;2022-10-26T06:42:08;4.53;;;1.90;;
6983;SDS011;3532;51.118;7.210;2022-10-26T06:44:34;4.00;;;2.50;;
6983;SDS011;3532;51.118;7.210;2022-10-26T06:47:21;3.27;;;2.23;;
6983;SDS011;3532;51.118;7.210;2022-10-26T06:49:55;7.10;;;2.70;;
6983;SDS011;3532;51.118;7.210;2022-10-26T06:52:28;4.90;;;2.20;;
6983;SDS011;3532;51.118;7.210;2022-10-26T06:54:57;4.40;;;2.00;;
6983;SDS011;3532;51.118;7.210;2022-10-26T06:57:23;6.70;;;2.33;;
6983;SDS011;3532;51.118;7.210;2022-10-26T07:02:52;3.60;;;2.00;;
6983;SDS011;3532;51.118;7.210;2022-10-26T07:05:17;6.87;;;2.20;;
6983;SDS011;3532;51.118;7.210;2022-10-26T07:07:43;4.00;;;1.70;;
6983;SDS011;3532;51.118;7.210;2022-10-26T07:10:10;3.03;;;1.87;;
6983;SDS011;3532;51.118;7.210;2022-10-26T07:12:36;3.77;;;2.07;;
6983;SDS011;3532;51.118;7.210;2022-10-26T07:15:01;8.07;;;2.20;;
6983;SDS011;3532;51.118;7.210;2022-10-26T07:17:27;5.23;;;2.03;;
6983;SDS011;3532;51.118;7.210;2022-10-26T07:19:53;5.93;;;2.23;;
6983;SDS011;3532;51.118;7.210;2022-10-26T07:22:19;5.10;;;2.33;;
6983;SDS011;3532;51.118;7.210;2022-10-26T07:24:44;5.47;;;2.10;;
6983;SDS011;3532;51.118;7.210;2022-10-26T07:27:09;6.03;;;2.20;;
6983;SDS011;3532;51.118;7.210;2022-10-26T07:29:35;2.87;;;2.10;;
6983;SDS011;3532;51.118;7.210;2022-10-26T07:32:00;6.63;;;1.97;;
6983;SDS011;3532;51.118;7.210;2022-10-26T07:34:25;4.50;;;1.90;;
6983;SDS011;3532;51.118;7.210;2022-10-26T07:36:51;4.77;;;2.67;;
6983;SDS011;3532;51.118;7.210;2022-10-26T07:39:16;5.30;;;2.03;;
6983;SDS011;3532;51.118;7.210;2022-10-26T07:41:41;4.13;;;2.60;;
6983;SDS011;3532;51.118;7.210;2022-10-26T07:44:07;5.27;;;2.17;;
6983;SDS011;3532;51.118;7.210;2022-10-26T07:46:32;3.30;;;2.13;;
6983;SDS011;3532;51.118;7.210;2022-10-26T07:48:57;3.20;;;2.20;;
6983;SDS011;3532;51.118;7.210;2022-10-26T07:51:23;2.43;;;2.03;;
6983;SDS011;3532;51.118;7.210;2022-10-26T07:53:48;4.03;;;1.93;;
6983;SDS011;3532;51.118;7.210;2022-10-26T07:56:13;4.07;;;2.00;;
6983;SDS011;3532;51.118;7.210;2022-10-26T07:58:39;4.93;;;1.90;;
6983;SDS011;3532;51.118;7.210;2022-10-26T08:01:08;3.37;;;2.17;;
6983;SDS011;3532;51.118;7.210;2022-10-26T08:03:35;5.17;;;2.23;;
6983;SDS011;3532;51.118;7.210;2022-10-26T08:06:01;3.93;;;2.17;;
6983;SDS011;3532;51.118;7.210;2022-10-26T08:08:28;11.43;;;2.60;;
6983;SDS011;3532;51.118;7.210;2022-10-26T08:10:53;5.40;;;2.27;;
6983;SDS011;3532;51.118;7.210;2022-10-26T08:13:18;4.07;;;2.37;;
6983;SDS011;3532;51.118;7.210;2022-10-26T08:15:44;3.07;;;2.53;;
6983;SDS011;3532;51.118;7.210;2022-10-26T08:18:09;4.60;;;2.20;;
6983;SDS011;3532;51.118;7.210;2022-10-26T08:20:35;4.40;;;2.23;;
6983;SDS011;3532;51.118;7.210;2022-10-26T08:23:00;2.43;;;2.00;;
6983;SDS011;3532;51.118;7.210;2022-10-26T08:25:25;3.50;;;2.40;;
6983;SDS011;3532;51.118;7.210;2022-10-26T08:27:51;6.27;;;2.30;;
6983;SDS011;3532;51.118;7.210;2022-10-26T08:30:17;6.57;;;2.50;;
6983;SDS011;3532;51.118;7.210;2022-10-26T08:32:42;7.23;;;2.70;;
6983;SDS011;3532;51.118;7.210;2022-10-26T08:35:08;4.37;;;2.30;;
6983;SDS011;3532;51.118;7.210;2022-10-26T08:37:34;4.80;;;2.37;;
6983;SDS011;3532;51.118;7.210;2022-10-26T08:39:59;5.40;;;2.37;;
6983;SDS011;3532;51.118;7.210;2022-10-26T08:42:29;4.93;;;2.10;;
6983;SDS011;3532;51.118;7.210;2022-10-26T08:44:59;6.43;;;2.37;;
6983;SDS011;3532;51.118;7.210;2022-10-26T08:47:45;4.47;;;3.07;;
6983;SDS011;3532;51.118;7.210;2022-10-26T08:50:15;6.20;;;2.50;;
6983;SDS011;3532;51.118;7.210;2022-10-26T08:52:56;8.33;;;3.40;;
6983;SDS011;3532;51.118;7.210;2022-10-26T08:55:28;3.80;;;2.33;;
6983;SDS011;3532;51.118;7.210;2022-10-26T08:57:57;4.93;;;2.27;;
6983;SDS011;3532;51.118;7.210;2022-10-26T09:00:24;4.23;;;2.27;;
6983;SDS011;3532;51.118;7.210;2022-10-26T09:02:53;5.40;;;2.70;;
6983;SDS011;3532;51.118;7.210;2022-10-26T09:05:21;4.43;;;2.50;;
6983;SDS011;3532;51.118;7.210;2022-10-26T09:07:55;5.23;;;2.80;;
6983;SDS011;3532;51.118;7.210;2022-10-26T09:10:32;8.97;;;3.03;;
6983;SDS011;3532;51.118;7.210;2022-10-26T09:16:22;5.63;;;2.97;;
6983;SDS011;3532;51.118;7.210;2022-10-26T09:21:22;5.67;;;2.43;;
6983;SDS011;3532;51.118;7.210;2022-10-26T09:24:05;6.17;;;2.73;;
6983;SDS011;3532;51.118;7.210;2022-10-26T09:26:37;5.87;;;2.60;;
6983;SDS011;3532;51.118;7.210;2022-10-26T09:29:08;6.17;;;2.77;;
6983;SDS011;3532;51.118;7.210;2022-10-26T09:31:41;6.87;;;2.70;;
6983;SDS011;3532;51.118;7.210;2022-10-26T09:34:13;8.60;;;3.33;;
6983;SDS011;3532;51.118;7.210;2022-10-26T09:36:42;5.17;;;2.50;;
6983;SDS011;3532;51.118;7.210;2022-10-26T09:39:14;3.43;;;2.67;;
6983;SDS011;3532;51.118;7.210;2022-10-26T09:42:03;5.13;;;2.73;;
6983;SDS011;3532;51.118;7.210;2022-10-26T09:44:44;6.40;;;2.77;;
6983;SDS011;3532;51.118;7.210;2022-10-26T09:47:15;5.43;;;3.03;;
6983;SDS011;3532;51.118;7.210;2022-10-26T09:49:57;6.57;;;2.80;;
6983;SDS011;3532;51.118;7.210;2022-10-26T09:52:24;2.60;;;2.20;;
6983;SDS011;3532;51.118;7.210;2022-10-26T09:54:50;5.63;;;2.87;;
6983;SDS011;3532;51.118;7.210;2022-10-26T09:57:15;6.03;;;2.50;;
6983;SDS011;3532;51.118;7.210;2022-10-26T09:59:43;4.60;;;3.00;;
6983;SDS011;3532;51.118;7.210;2022-10-26T10:04:59;10.57;;;3.00;;
6983;SDS011;3532;51.118;7.210;2022-10-26T10:07:24;6.57;;;3.00;;
6983;SDS011;3532;51.118;7.210;2022-10-26T10:10:35;7.87;;;2.70;;
6983;SDS011;3532;51.118;7.210;2022-10-26T10:12:40;12.67;;;3.00;;
6983;SDS011;3532;51.118;7.210;2022-10-26T10:15:12;5.07;;;2.50;;
6983;SDS011;3532;51.118;7.210;2022-10-26T10:17:45;4.83;;;2.90;;
6983;SDS011;3532;51.118;7.210;2022-10-26T10:20:21;7.53;;;2.77;;
6983;SDS011;3532;51.118;7.210;2022-10-26T10:22:54;7.77;;;2.63;;
6983;SDS011;3532;51.118;7.210;2022-10-26T10:25:22;6.87;;;2.70;;
6983;SDS011;3532;51.118;7.210;2022-10-26T10:27:57;4.67;;;2.40;;
6983;SDS011;3532;51.118;7.210;2022-10-26T10:30:26;4.07;;;2.70;;
6983;SDS011;3532;51.118;7.210;2022-10-26T10:33:05;7.43;;;3.03;;
6983;SDS011;3532;51.118;7.210;2022-10-26T10:35:32;4.37;;;2.60;;
6983;SDS011;3532;51.118;7.210;2022-10-26T10:37:57;4.40;;;2.70;;
6983;SDS011;3532;51.118;7.210;2022-10-26T10:40:23;5.43;;;3.40;;
6983;SDS011;3532;51.118;7.210;2022-10-26T10:42:51;7.40;;;2.90;;
6983;SDS011;3532;51.118;7.210;2022-10-26T10:48:00;5.13;;;2.97;;
6983;SDS011;3532;51.118;7.210;2022-10-26T10:50:27;4.87;;;2.90;;
6983;SDS011;3532;51.118;7.210;2022-10-26T10:53:10;5.77;;;2.70;;
6983;SDS011;3532;51.118;7.210;2022-10-26T10:55:37;6.43;;;3.43;;
6983;SDS011;3532;51.118;7.210;2022-10-26T10:58:07;9.83;;;3.17;;
6983;SDS011;3532;51.118;7.210;2022-10-26T11:00:40;7.83;;;3.10;;
6983;SDS011;3532;51.118;7.210;2022-10-26T11:03:23;4.60;;;3.00;;
6983;SDS011;3532;51.118;7.210;2022-10-26T11:08:42;4.57;;;2.93;;
6983;SDS011;3532;51.118;7.210;2022-10-26T11:11:20;8.47;;;3.30;;
6983;SDS011;3532;51.118;7.210;2022-10-26T11:13:51;7.17;;;2.97;;
6983;SDS011;3532;51.118;7.210;2022-10-26T11:16:22;6.17;;;3.07;;
6983;SDS011;3532;51.118;7.210;2022-10-26T11:18:55;5.60;;;2.97;;
6983;SDS011;3532;51.118;7.210;2022-10-26T11:21:27;7.17;;;2.90;;
6983;SDS011;3532;51.118;7.210;2022-10-26T11:26:38;3.57;;;2.90;;
6983;SDS011;3532;51.118;7.210;2022-10-26T11:29:21;6.03;;;2.97;;
6983;SDS011;3532;51.118;7.210;2022-10-26T11:31:51;8.07;;;3.27;;
6983;SDS011;3532;51.118;7.210;2022-10-26T11:34:33;6.50;;;2.90;;
6983;SDS011;3532;51.118;7.210;2022-10-26T11:39:44;4.87;;;2.90;;
6983;SDS011;3532;51.118;7.210;2022-10-26T11:42:19;6.67;;;3.07;;
6983;SDS011;3532;51.118;7.210;2022-10-26T11:44:50;11.13;;;3.20;;
6983;SDS011;3532;51.118;7.210;2022-10-26T11:47:42;6.30;;;2.70;;
6983;SDS011;3532;51.118;7.210;2022-10-26T11:52:59;6.87;;;2.80;;
6983;SDS011;3532;51.118;7.210;2022-10-26T11:55:27;5.40;;;3.57;;
6983;SDS011;3532;51.118;7.210;2022-10-26T11:57:53;4.17;;;2.93;;
6983;SDS011;3532;51.118;7.210;2022-10-26T12:00:19;4.27;;;2.73;;
6983;SDS011;3532;51.118;7.210;2022-10-26T12:02:55;5.93;;;2.90;;
6983;SDS011;3532;51.118;7.210;2022-10-26T12:05:45;4.00;;;2.80;;
6983;SDS011;3532;51.118;7.210;2022-10-26T12:08:20;5.47;;;3.10;;
6983;SDS011;3532;51.118;7.210;2022-10-26T12:10:57;3.37;;;2.70;;
6983;SDS011;3532;51.118;7.210;2022-10-26T12:13:46;6.23;;;3.07;;
6983;SDS011;3532;51.118;7.210;2022-10-26T12:16:20;5.20;;;3.47;;
6983;SDS011;3532;51.118;7.210;2022-10-26T12:19:03;3.63;;;2.73;;
6983;SDS011;3532;51.118;7.210;2022-10-26T12:21:30;6.73;;;3.43;;
6983;SDS011;3532;51.118;7.210;2022-10-26T12:24:00;3.63;;;2.63;;
6983;SDS011;3532;51.118;7.210;2022-10-26T12:33:56;5.83;;;2.93;;
6983;SDS011;3532;51.118;7.210;2022-10-26T12:45:00;4.73;;;2.47;;
6983;SDS011;3532;51.118;7.210;2022-10-26T12:49:58;5.57;;;2.40;;
6983;SDS011;3532;51.118;7.210;2022-10-26T12:52:25;6.83;;;2.40;;
6983;SDS011;3532;51.118;7.210;2022-10-26T12:55:04;2.20;;;1.97;;
6983;SDS011;3532;51.118;7.210;2022-10-26T12:58:23;3.60;;;2.23;;
6983;SDS011;3532;51.118;7.210;2022-10-26T13:00:24;3.80;;;2.03;;
6983;SDS011;3532;51.118;7.210;2022-10-26T13:02:57;3.90;;;2.57;;
6983;SDS011;3532;51.118;7.210;2022-10-26T13:05:42;3.27;;;2.30;;
6983;SDS011;3532;51.118;7.210;2022-10-26T13:08:14;4.03;;;1.90;;
6983;SDS011;3532;51.118;7.210;2022-10-26T13:10:43;4.80;;;1.90;;
6983;SDS011;3532;51.118;7.210;2022-10-26T13:13:24;4.30;;;1.93;;
6983;SDS011;3532;51.118;7.210;2022-10-26T13:15:53;5.53;;;1.87;;
6983;SDS011;3532;51.118;7.210;2022-10-26T13:18:19;2.60;;;1.90;;
6983;SDS011;3532;51.118;7.210;2022-10-26T13:23:29;4.80;;;2.03;;
6983;SDS011;3532;51.118;7.210;2022-10-26T13:28:32;4.60;;;2.30;;
6983;SDS011;3532;51.118;7.210;2022-10-26T13:36:44;3.77;;;1.97;;
6983;SDS011;3532;51.118;7.210;2022-10-26T13:39:17;2.73;;;1.80;;
6983;SDS011;3532;51.118;7.210;2022-10-26T13:41:45;4.67;;;2.23;;
6983;SDS011;3532;51.118;7.210;2022-10-26T13:44:21;3.97;;;1.90;;
6983;SDS011;3532;51.118;7.210;2022-10-26T13:46:50;2.17;;;1.80;;
6983;SDS011;3532;51.118;7.210;2022-10-26T13:49:20;4.93;;;1.97;;
6983;SDS011;3532;51.118;7.210;2022-10-26T13:51:49;3.40;;;1.80;;
6983;SDS011;3532;51.118;7.210;2022-10-26T13:54:38;6.70;;;2.10;;
6983;SDS011;3532;51.118;7.210;2022-10-26T13:59:32;2.03;;;1.70;;
6983;SDS011;3532;51.118;7.210;2022-10-26T14:02:06;4.87;;;2.00;;
6983;SDS011;3532;51.118;7.210;2022-10-26T14:04:32;4.30;;;2.23;;
6983;SDS011;3532;51.118;7.210;2022-10-26T14:06:57;2.10;;;1.63;;
6983;SDS011;3532;51.118;7.210;2022-10-26T14:09:22;3.73;;;1.93;;
6983;SDS011;3532;51.118;7.210;2022-10-26T14:11:50;2.10;;;1.80;;
6983;SDS011;3532;51.118;7.210;2022-10-26T14:16:49;5.43;;;1.90;;
6983;SDS011;3532;51.118;7.210;2022-10-26T14:19:15;1.90;;;1.70;;
6983;SDS011;3532;51.118;7.210;2022-10-26T14:21:46;3.50;;;1.93;;
6983;SDS011;3532;51.118;7.210;2022-10-26T14:24:21;3.40;;;2.00;;
6983;SDS011;3532;51.118;7.210;2022-10-26T14:26:51;3.63;;;2.10;;
6983;SDS011;3532;51.118;7.210;2022-10-26T14:29:17;4.13;;;2.20;;
6983;SDS011;3532;51.118;7.210;2022-10-26T14:31:44;3.43;;;1.70;;
6983;SDS011;3532;51.118;7.210;2022-10-26T14:34:10;3.30;;;1.87;;
6983;SDS011;3532;51.118;7.210;2022-10-26T14:36:37;2.37;;;1.63;;
6983;SDS011;3532;51.118;7.210;2022-10-26T14:39:07;1.70;;;1.60;;
6983;SDS011;3532;51.118;7.210;2022-10-26T14:41:37;5.07;;;1.77;;
6983;SDS011;3532;51.118;7.210;2022-10-26T14:44:03;4.00;;;1.93;;
6983;SDS011;3532;51.118;7.210;2022-10-26T14:46:31;3.23;;;1.83;;
6983;SDS011;3532;51.118;7.210;2022-10-26T14:48:58;2.70;;;1.83;;
6983;SDS011;3532;51.118;7.210;2022-10-26T14:51:25;2.13;;;1.70;;
6983;SDS011;3532;51.118;7.210;2022-10-26T14:53:58;2.03;;;1.73;;
6983;SDS011;3532;51.118;7.210;2022-10-26T14:59:08;3.30;;;1.80;;
6983;SDS011;3532;51.118;7.210;2022-10-26T15:05:03;2.40;;;1.70;;
6983;SDS011;3532;51.118;7.210;2022-10-26T15:07:41;3.00;;;1.80;;
6983;SDS011;3532;51.118;7.210;2022-10-26T15:15:43;6.43;;;1.80;;
6983;SDS011;3532;51.118;7.210;2022-10-26T15:18:27;2.83;;;1.73;;
6983;SDS011;3532;51.118;7.210;2022-10-26T15:20:56;5.43;;;2.07;;
6983;SDS011;3532;51.118;7.210;2022-10-26T15:23:22;2.27;;;1.80;;
6983;SDS011;3532;51.118;7.210;2022-10-26T15:25:58;7.20;;;2.83;;
6983;SDS011;3532;51.118;7.210;2022-10-26T15:28:29;5.77;;;2.23;;
6983;SDS011;3532;51.118;7.210;2022-10-26T15:31:03;4.60;;;2.23;;
6983;SDS011;3532;51.118;7.210;2022-10-26T15:33:29;4.53;;;1.90;;
6983;SDS011;3532;51.118;7.210;2022-10-26T15:38:43;4.97;;;1.90;;
6983;SDS011;3532;51.118;7.210;2022-10-26T15:41:17;4.90;;;2.07;;
6983;SDS011;3532;51.118;7.210;2022-10-26T15:43:48;5.00;;;1.87;;
6983;SDS011;3532;51.118;7.210;2022-10-26T15:46:15;7.17;;;1.77;;
6983;SDS011;3532;51.118;7.210;2022-10-26T15:48:41;3.60;;;1.77;;
6983;SDS011;3532;51.118;7.210;2022-10-26T15:51:09;5.00;;;1.67;;
6983;SDS011;3532;51.118;7.210;2022-10-26T15:53:35;5.23;;;1.50;;
6983;SDS011;3532;51.118;7.210;2022-10-26T15:56:00;4.20;;;2.17;;
6983;SDS011;3532;51.118;7.210;2022-10-26T15:58:27;8.07;;;2.90;;
6983;SDS011;3532;51.118;7.210;2022-10-26T16:00:53;11.60;;;4.60;;
6983;SDS011;3532;51.118;7.210;2022-10-26T16:03:20;17.63;;;10.60;;
6983;SDS011;3532;51.118;7.210;2022-10-26T16:05:47;17.13;;;10.13;;
6983;SDS011;3532;51.118;7.210;2022-10-26T16:08:17;9.33;;;5.13;;
6983;SDS011;3532;51.118;7.210;2022-10-26T16:10:43;6.10;;;2.80;;
6983;SDS011;3532;51.118;7.210;2022-10-26T16:13:11;4.50;;;2.50;;
6983;SDS011;3532;51.118;7.210;2022-10-26T16:15:36;7.03;;;2.67;;
6983;SDS011;3532;51.118;7.210;2022-10-26T16:18:02;3.73;;;2.20;;
6983;SDS011;3532;51.118;7.210;2022-10-26T16:20:28;5.23;;;2.00;;
6983;SDS011;3532;51.118;7.210;2022-10-26T16:22:53;3.87;;;2.03;;
6983;SDS011;3532;51.118;7.210;2022-10-26T16:25:21;6.17;;;1.83;;
6983;SDS011;3532;51.118;7.210;2022-10-26T16:27:49;3.07;;;1.70;;
6983;SDS011;3532;51.118;7.210;2022-10-26T16:30:15;4.03;;;2.20;;
6983;SDS011;3532;51.118;7.210;2022-10-26T16:32:41;4.17;;;2.00;;
6983;SDS011;3532;51.118;7.210;2022-10-26T16:35:06;3.33;;;1.90;;
6983;SDS011;3532;51.118;7.210;2022-10-26T16:37:32;4.90;;;1.53;;
6983;SDS011;3532;51.118;7.210;2022-10-26T16:39:57;3.17;;;1.80;;
6983;SDS011;3532;51.118;7.210;2022-10-26T16:42:23;3.40;;;1.70;;
6983;SDS011;3532;51.118;7.210;2022-10-26T16:44:49;6.10;;;1.87;;
6983;SDS011;3532;51.118;7.210;2022-10-26T16:47:14;2.03;;;1.80;;
6983;SDS011;3532;51.118;7.210;2022-10-26T16:49:39;5.17;;;2.23;;
6983;SDS011;3532;51.118;7.210;2022-10-26T16:52:07;4.67;;;2.23;;
6983;SDS011;3532;51.118;7.210;2022-10-26T16:54:33;3.77;;;2.10;;
6983;SDS011;3532;51.118;7.210;2022-10-26T16:56:58;11.70;;;2.23;;
6983;SDS011;3532;51.118;7.210;2022-10-26T16:59:23;5.10;;;2.03;;
6983;SDS011;3532;51.118;7.210;2022-10-26T17:01:49;2.03;;;1.83;;
6983;SDS011;3532;51.118;7.210;2022-10-26T17:04:14;3.70;;;1.83;;
6983;SDS011;3532;51.118;7.210;2022-10-26T17:06:39;9.23;;;2.47;;
6983;SDS011;3532;51.118;7.210;2022-10-26T17:09:05;8.20;;;1.90;;
6983;SDS011;3532;51.118;7.210;2022-10-26T17:11:30;10.20;;;2.57;;
6983;SDS011;3532;51.118;7.210;2022-10-26T17:13:55;7.57;;;2.40;;
6983;SDS011;3532;51.118;7.210;2022-10-26T17:16:21;10.63;;;2.70;;
6983;SDS011;3532;51.118;7.210;2022-10-26T17:18:48;3.93;;;1.97;;
6983;SDS011;3532;51.118;7.210;2022-10-26T17:21:14;3.20;;;2.43;;
6983;SDS011;3532;51.118;7.210;2022-10-26T17:23:41;7.47;;;2.70;;